Weather observations for the past three days for
Iron Mountain / Kingsford, Ford Airport
| Date | Time (cdt) | Wind (kph) | Vis. (km) | Weather | Sky Cond. | Temperature (ºC) | Relative Humidity | Wind Chill (°C) | Heat Index (°C) | Pressure | Precipitation (cm) | ||||||
|---|---|---|---|---|---|---|---|---|---|---|---|---|---|---|---|---|---|
| Air | Dwpt | 6 hour | altimeter (cm) | sea level (mb) | 1 hr | 3 hr | 6 hr | ||||||||||
| Max. | Min. | ||||||||||||||||
| 02 | 00:54 | Calm | 16.09 | Fair | CLR | 15.6 | 14.4 | 28.3 | 14.4 | 93% | 76 | 1012.5 | |||||
| 01 | 23:54 | Calm | 16.09 | Fair | CLR | 15.6 | 14.4 | 93% | 75.97 | 1012.5 | |||||||
| 01 | 22:54 | Calm | 16.09 | Fair | CLR | 18.3 | 15.6 | 84% | 75.97 | 1012.4 | |||||||
| 01 | 21:54 | N 7 | 16.09 | Fair | CLR | 21.1 | 15.6 | 71% | 75.95 | 1012.2 | |||||||
| 01 | 20:54 | W 9 | 16.09 | Fair | CLR | 25 | 15 | 54% | 26 | 75.92 | 1011.6 | ||||||
| 01 | 19:54 | SW 6 | 16.09 | Fair | CLR | 26.1 | 15 | 50% | 27 | 75.84 | 1010.9 | ||||||
| 01 | 18:54 | SW 11 | 16.09 | Fair | CLR | 28.3 | 13.9 | 32.8 | 28.3 | 41% | 28 | 75.84 | 1010.6 | ||||
| 01 | 17:54 | SW 13 | 16.09 | Fair | CLR | 31.1 | 12.8 | 33% | 30 | 75.84 | 1010.5 | ||||||
| 01 | 16:54 | SW 17 G 30 | 16.09 | Fair | CLR | 32.2 | 11.7 | 28% | 31 | 75.84 | 1010.5 | ||||||
| 01 | 15:54 | SW 19 G 33 | 16.09 | Fair | CLR | 32.2 | 11.7 | 28% | 31 | 75.84 | 1010.6 | ||||||
| 01 | 14:54 | SW 13 G 30 | 16.09 | Fair | CLR | 32.2 | 12.2 | 29% | 31 | 75.87 | 1011.0 | ||||||
| 01 | 13:54 | S 9 | 16.09 | Fair | CLR | 32.2 | 14.4 | 34% | 32 | 75.92 | 1011.5 | ||||||
| 01 | 12:54 | W 13 | 16.09 | Fair | CLR | 31.7 | 12.8 | 31.7 | 16.7 | 31% | 31 | 75.97 | 1012.1 | ||||
| 01 | 11:54 | Vrbl 6 | 16.09 | Fair | CLR | 29.4 | 16.1 | 45% | 30 | 76.02 | 1013.1 | ||||||
| 01 | 10:54 | W 7 | 16.09 | Fair | CLR | 27.8 | 20.6 | 65% | 30 | 76.05 | 1013.4 | ||||||
| 01 | 09:54 | Calm | 16.09 | Fair | CLR | 23.9 | 20.6 | 82% | 24 | 76.05 | 1013.5 | ||||||
| 01 | 08:54 | NW 6 | 16.09 | Fair | CLR | 20 | 19.4 | 96% | 76.07 | 1013.8 | |||||||
| 01 | 07:54 | Calm | 0.40 | Fog | VV001 | 17.2 | 17.2 | 100% | 76.07 | 1014.0 | |||||||
| 01 | 06:54 | Calm | 0.40 | Fog | VV002 | 16.7 | 16.7 | 17.8 | 16.1 | 100% | 76.02 | 1013.2 | |||||
| 01 | 05:54 | Calm | 0.80 | Fog | OVC001 | 16.7 | 16.7 | 100% | 75.97 | 1012.6 | |||||||
| 01 | 04:54 | Calm | 0.40 | Fog | VV001 | 16.7 | 16.7 | 100% | 76 | 1012.7 | |||||||
| 01 | 03:54 | N 6 | 0.40 | Fog | VV001 | 16.7 | 16.7 | 100% | 75.97 | 1012.5 | |||||||
| 01 | 02:54 | Calm | 1.21 | Fog/Mist | VV002 | 17.2 | 17.2 | 100% | 75.97 | 1012.6 | |||||||
| 01 | 01:54 | Calm | 1.21 | Fog/Mist | VV002 | 17.8 | 17.8 | 100% | 75.95 | 1012.3 | |||||||
| 01 | 00:54 | Calm | 0.40 | Fog | OVC001 | 18.9 | 18.9 | 26.1 | 17.8 | 100% | 75.97 | 1012.3 | |||||
| 31 | 23:54 | Calm | 0.40 | Fog | VV001 | 18.3 | 18.3 | 100% | 75.95 | 1012.1 | |||||||
| 31 | 22:54 | Calm | 0.40 | Fog | VV002 | 19.4 | 19.4 | 100% | 75.92 | 1011.9 | |||||||
| 31 | 21:54 | Calm | 0.80 | Fog | VV002 | 20 | 20 | 100% | 75.95 | 1012.1 | |||||||
| 31 | 20:54 | W 6 | 9.66 | Fog/Mist | CLR | 22.2 | 22.2 | 100% | 75.95 | 1012.0 | |||||||
| 31 | 19:54 | Calm | 16.09 | A Few Clouds | FEW027 FEW035 | 23.3 | 22.2 | 94% | 75.87 | 1011.2 | |||||||
| 31 | 18:54 | Calm | 16.09 | Fair | CLR | 26.1 | 22.8 | 28.3 | 24.4 | 82% | 28 | 75.84 | 1010.6 | ||||
| 31 | 17:54 | SW 6 | 16.09 | Partly Cloudy | SCT026 | 27.2 | 22.8 | 77% | 30 | 75.84 | 1010.5 | ||||||
| 31 | 16:54 | SW 7 | 16.09 | Mostly Cloudy | BKN024 | 27.2 | 22.8 | 77% | 30 | 75.79 | 1010.1 | ||||||
| 31 | 15:54 | S 7 | 16.09 | Fair | CLR | 27.8 | 21.7 | 69% | 30 | 75.77 | 1009.6 | ||||||
| 31 | 14:54 | Vrbl 6 | 16.09 | Fair | CLR | 27.2 | 21.7 | 72% | 29 | 75.77 | 1009.8 | ||||||
| 31 | 13:54 | W 7 | 16.09 | Partly Cloudy | SCT016 | 26.1 | 21.1 | 74% | 28 | 75.82 | 1010.2 | ||||||
| 31 | 12:54 | S 7 | 16.09 | Overcast | OVC014 | 24.4 | 20.6 | 24.4 | 18.9 | 79% | 25 | 75.87 | 1011.1 | ||||
| 31 | 11:54 | S 9 | 16.09 | Overcast | OVC012 | 23.3 | 20.6 | 85% | 75.87 | 1011.0 | |||||||
| 31 | 10:54 | S 13 | 16.09 | Overcast | OVC013 | 22.2 | 20.6 | 91% | 75.9 | 1011.3 | |||||||
| 31 | 09:54 | S 11 | 9.66 | Fog/Mist | OVC002 | 20.6 | 20.6 | 100% | 75.87 | 1011.2 | |||||||
| 31 | 08:54 | SE 9 | 0.40 | Fog | VV001 | 20 | 20 | 100% | 75.9 | 1011.5 | |||||||
| 31 | 07:54 | SE 9 | 0.40 | Fog | VV001 | 19.4 | 19.4 | 100% | 75.92 | 1012.0 | |||||||
| 31 | 06:54 | SE 7 | 2.01 | Fog/Mist | OVC001 | 18.9 | 18.9 | 19.4 | 18.9 | 100% | 75.9 | 1011.7 | 0.53 | ||||
| 31 | 05:54 | SE 11 | 11.27 | Overcast | OVC002 | 18.9 | 18.9 | 100% | 75.92 | 1011.7 | |||||||
| 31 | 04:54 | SE 11 | 16.09 | Overcast | BKN003 OVC050 | 18.9 | 18.9 | 100% | 75.92 | 1012.0 | 0.53 | ||||||
| 31 | 03:54 | SE 11 | 0.80 | Thunderstorm in Vicinity Light Rain Fog | VV001 | 18.9 | 18.9 | 100% | 76 | 1012.8 | |||||||
| 31 | 02:54 | E 7 | 2.41 | Fog/Mist | OVC001 | 18.9 | 18.9 | 100% | 76.05 | 1013.5 | |||||||
| 31 | 01:49 | E 9 | 4.02 | Fog/Mist | OVC002 | 19.4 | 18.9 | 97% | 76.07 | 1013.8 | |||||||
| 31 | 00:54 | SE 6 | 1.21 | Fog/Mist | OVC001 | 19.4 | 18.9 | 20 | 19.4 | 97% | 76.07 | 1013.8 | |||||
| 30 | 23:54 | SE 7 | 1.61 | Fog/Mist | OVC001 | 19.4 | 19.4 | 100% | 76.12 | 1014.6 | |||||||
| 30 | 22:54 | SE 9 | 4.83 | Fog/Mist | OVC002 | 19.4 | 19.4 | 100% | 76.1 | 1014.3 | |||||||
| 30 | 21:54 | E 9 | 12.87 | Overcast | OVC006 | 20 | 19.4 | 96% | 76.1 | 1014.2 | |||||||
| 30 | 19:54 | E 7 | 11.27 | Overcast | BKN005 BKN011 OVC016 | 20 | 19.4 | 96% | 76.05 | 1013.7 | |||||||
| 30 | 18:54 | Calm | 4.02 | Light Rain Fog/Mist | OVC007 | 20 | 19.4 | 22.2 | 20 | 96% | 76.05 | 1013.5 | |||||
| 30 | 17:54 | E 7 | 14.48 | Overcast | BKN010 OVC015 | 21.1 | 19.4 | 90% | 76.02 | 1013.4 | |||||||
| 30 | 16:54 | NE 7 | 16.09 | Overcast | OVC013 | 21.7 | 19.4 | 87% | 76.02 | 1013.2 | |||||||
| 30 | 15:54 | NE 9 | 16.09 | Overcast | OVC012 | 21.7 | 18.9 | 84% | 76.02 | 1013.3 | |||||||
| 30 | 14:54 | NE 7 | 16.09 | Overcast | OVC011 | 21.1 | 18.9 | 87% | 76.05 | 1013.6 | |||||||
| 30 | 13:54 | NE 9 | 16.09 | Overcast | OVC007 | 20.6 | 18.9 | 90% | 76.02 | 1013.5 | |||||||
| 30 | 12:54 | E 11 | 12.87 | Overcast | OVC006 | 20 | 18.9 | 20 | 17.8 | 93% | 76.02 | 1013.4 | |||||
| 30 | 11:54 | E 11 | 16.09 | Overcast | OVC007 | 19.4 | 18.3 | 93% | 76.02 | 1013.6 | |||||||
| 30 | 10:54 | NE 7 | 16.09 | Light Rain | OVC006 | 19.4 | 18.3 | 93% | 76.05 | 1013.9 | |||||||
| 30 | 09:54 | NE 9 | 16.09 | Overcast | OVC005 | 19.4 | 18.3 | 93% | 76.02 | 1013.3 | |||||||
| 30 | 08:54 | N 7 | 12.87 | Overcast | OVC003 | 18.9 | 18.3 | 96% | 76.02 | 1013.5 | |||||||
| 30 | 07:54 | N 6 | 12.87 | Overcast | OVC002 | 18.3 | 17.8 | 97% | 76.02 | 1013.4 | |||||||
| 30 | 06:54 | Calm | 2.01 | Fog/Mist | OVC002 | 17.8 | 17.8 | 17.8 | 17.2 | 100% | 76 | 1013.1 | 0.03 | ||||
| 30 | 05:54 | Calm | 3.22 | Fog/Mist | OVC002 | 17.8 | 17.2 | 96% | 75.97 | 1012.9 | |||||||
| 30 | 04:54 | Calm | 4.83 | Fog/Mist | OVC001 | 17.8 | 17.8 | 100% | 75.97 | 1012.8 | |||||||
| 30 | 03:49 | Calm | 4.02 | Fog/Mist | OVC001 | 17.8 | 17.8 | 100% | 76 | 1013.0 | 0.03 | ||||||
| 30 | 02:54 | Calm | 11.27 | Overcast | OVC002 | 17.2 | 17.2 | 100% | 76.02 | 1013.2 | |||||||
| 30 | 01:54 | Calm | 6.44 | Fog/Mist | OVC003 | 17.2 | 17.2 | 100% | 76.05 | 1013.8 | 0.03 | ||||||
| Date | Time (cdt) | Wind (kph) | Vis. (km) | Weather | Sky Cond. | Air | Dwpt | Max. | Min. | Relative Humidity | Wind Chill (°C) | Heat Index (°C) | altimeter (cm) | sea level (mb) | 1 hr | 3 hr | 6 hr |
| 6 hour | |||||||||||||||||
| Temperature (ºC) | Pressure | Precipitation (cm) | |||||||||||||||